Time;durP1;ratioP1;P1;durP2;ratioP2;P2;SDS_P1;SDS_P2;PMS_P1;PMS_P2;Temp;Humidity;BMP_temperature;BMP_pressure;BME280_temperature;BME280_humidity;BME280_pressure;Samples;Min_cycle;Max_cycle;Signal;HPM_P1;HPM_P2
2022/04/23 00:02:12;;;;;;;19.63;16.15;;;11.70;43.00;;;;;;5045129;28;20258;-78
2022/04/23 00:04:40;;;;;;;18.75;16.05;;;11.70;43.10;;;;;;5053239;28;20215;-78
2022/04/23 00:07:07;;;;;;;18.52;16.08;;;11.60;43.20;;;;;;5054051;28;20207;-78
2022/04/23 00:09:34;;;;;;;20.17;16.80;;;11.60;43.20;;;;;;5036956;28;20329;-78
2022/04/23 00:12:01;;;;;;;22.02;17.50;;;11.60;43.30;;;;;;5035951;28;20263;-77
2022/04/23 00:14:31;;;;;;;23.48;16.45;;;11.60;43.40;;;;;;5037869;28;20242;-78
2022/04/23 00:17:00;;;;;;;19.70;17.17;;;11.60;43.70;;;;;;5036510;28;20690;-77
2022/04/23 00:19:27;;;;;;;18.85;15.25;;;11.50;43.90;;;;;;5037595;28;20207;-78
2022/04/23 00:21:59;;;;;;;20.08;16.35;;;11.40;44.50;;;;;;5037703;28;20234;-78
2022/04/23 00:24:29;;;;;;;18.00;15.75;;;11.40;44.50;;;;;;5045736;28;20577;-77
2022/04/23 00:26:55;;;;;;;19.70;17.10;;;11.40;44.60;;;;;;5044161;28;20211;-78
2022/04/23 00:29:22;;;;;;;20.98;17.30;;;11.50;44.60;;;;;;5054989;28;20442;-77
2022/04/23 00:31:50;;;;;;;20.92;17.10;;;11.40;44.70;;;;;;5056320;28;20287;-77
2022/04/23 00:34:17;;;;;;;18.92;16.60;;;11.40;45.00;;;;;;5046220;28;20207;-77
2022/04/23 00:36:44;;;;;;;20.67;17.35;;;11.30;45.00;;;;;;5036662;28;20242;-79
2022/04/23 00:39:12;;;;;;;17.83;16.02;;;11.30;46.20;;;;;;5036830;28;20526;-77
2022/04/23 00:41:46;;;;;;;18.70;15.38;;;11.30;45.60;;;;;;5038850;28;20245;-77
2022/04/23 00:44:14;;;;;;;23.35;17.85;;;11.30;46.30;;;;;;5039584;28;20221;-78
2022/04/23 00:46:42;;;;;;;20.40;15.88;;;11.40;45.70;;;;;;5041055;28;20207;-78
2022/04/23 00:49:08;;;;;;;20.15;16.50;;;11.30;45.60;;;;;;5041872;28;20281;-77
2022/04/23 00:51:36;;;;;;;19.65;17.20;;;11.20;46.00;;;;;;5040640;28;20723;-78
2022/04/23 00:54:08;;;;;;;20.35;18.13;;;11.20;46.30;;;;;;5040523;28;20214;-79
2022/04/23 00:56:37;;;;;;;20.67;16.85;;;11.10;46.50;;;;;;5059614;22;20269;-77
2022/04/23 00:59:06;;;;;;;21.45;18.13;;;11.00;47.00;;;;;;5036584;28;20282;-73
2022/04/23 01:01:32;;;;;;;21.88;17.90;;;11.00;47.40;;;;;;5036628;28;20215;-77
2022/04/23 01:04:02;;;;;;;21.45;18.10;;;10.90;47.70;;;;;;5038254;28;20211;-76
2022/04/23 01:06:34;;;;;;;21.63;17.92;;;10.90;48.50;;;;;;5054889;28;20226;-77
2022/04/23 01:09:04;;;;;;;22.48;17.38;;;10.90;48.10;;;;;;5058161;28;20245;-78
2022/04/23 01:11:31;;;;;;;21.48;17.58;;;10.80;48.30;;;;;;5058369;28;20209;-79
2022/04/23 01:13:59;;;;;;;20.80;18.15;;;10.80;48.70;;;;;;5055798;28;20777;-78
2022/04/23 01:16:26;;;;;;;23.00;18.83;;;10.70;49.50;;;;;;5057567;28;20571;-76
2022/04/23 01:18:53;;;;;;;21.88;18.55;;;10.60;49.80;;;;;;5059350;28;20281;-76
2022/04/23 01:21:22;;;;;;;21.45;17.45;;;10.60;49.80;;;;;;5061786;28;20219;-78
2022/04/23 01:23:52;;;;;;;23.27;18.20;;;10.50;49.70;;;;;;5067049;28;20233;-77
2022/04/23 01:26:27;;;;;;;22.60;19.10;;;10.40;49.60;;;;;;5059888;28;20226;-77
2022/04/23 01:28:54;;;;;;;23.50;19.25;;;10.40;50.20;;;;;;5059938;28;20670;-76
2022/04/23 01:31:21;;;;;;;25.25;19.05;;;10.40;50.60;;;;;;5059520;28;20207;-77
2022/04/23 01:33:48;;;;;;;24.42;19.30;;;10.30;50.90;;;;;;5057704;28;20206;-76
2022/04/23 01:36:15;;;;;;;26.23;19.75;;;10.30;51.00;;;;;;5058332;28;20280;-77
2022/04/23 01:38:44;;;;;;;22.02;17.98;;;10.30;51.60;;;;;;5068493;28;20210;-77
2022/04/23 01:41:11;;;;;;;24.58;19.67;;;10.20;51.90;;;;;;5073190;28;20210;-77
2022/04/23 01:43:38;;;;;;;24.42;18.75;;;10.20;52.10;;;;;;5073432;28;20241;-77
2022/04/23 01:46:05;;;;;;;23.25;18.55;;;10.10;52.60;;;;;;5067643;28;20584;-78
2022/04/23 01:48:32;;;;;;;24.40;19.83;;;10.00;53.20;;;;;;5062159;28;20234;-75
2022/04/23 01:50:59;;;;;;;24.92;18.85;;;10.00;53.60;;;;;;5059609;28;20214;-76
2022/04/23 01:53:26;;;;;;;27.10;20.88;;;10.00;53.80;;;;;;5058818;28;20214;-78
2022/04/23 01:55:55;;;;;;;26.30;20.20;;;10.00;54.20;;;;;;5059163;28;20244;-78
2022/04/23 01:58:22;;;;;;;25.90;20.33;;;9.90;55.80;;;;;;5058427;28;20210;-78
2022/04/23 02:00:49;;;;;;;24.38;19.50;;;9.90;56.10;;;;;;5058976;28;20212;-75
2022/04/23 02:03:16;;;;;;;24.92;18.95;;;9.80;56.40;;;;;;5059755;28;20329;-77
2022/04/23 02:05:43;;;;;;;24.55;20.10;;;9.80;56.60;;;;;;5062814;28;20265;-76
2022/04/23 02:08:14;;;;;;;25.95;20.90;;;9.80;56.90;;;;;;5061556;28;20203;-76
2022/04/23 02:10:41;;;;;;;26.95;20.38;;;9.80;56.80;;;;;;5059791;28;20245;-77
2022/04/23 02:13:10;;;;;;;24.60;19.77;;;9.80;57.40;;;;;;5061577;28;20229;-75
2022/04/23 02:15:37;;;;;;;24.92;20.15;;;9.80;57.30;;;;;;5063534;28;20229;-78
2022/04/23 02:18:04;;;;;;;31.60;20.83;;;9.70;57.70;;;;;;5063170;28;20270;-78
2022/04/23 02:20:31;;;;;;;26.00;19.70;;;9.70;58.40;;;;;;5066604;28;20260;-75
2022/04/23 02:22:58;;;;;;;24.77;19.52;;;9.60;58.70;;;;;;5070883;28;20207;-74
2022/04/23 02:25:26;;;;;;;26.48;18.33;;;9.60;59.30;;;;;;5071532;28;20628;-77
2022/04/23 02:27:52;;;;;;;23.55;18.98;;;9.60;59.30;;;;;;5066912;28;20211;-77
2022/04/23 02:30:22;;;;;;;23.75;19.25;;;9.60;59.30;;;;;;5077622;28;20253;-73
2022/04/23 02:32:49;;;;;;;25.58;20.60;;;9.60;59.30;;;;;;5074132;28;20203;-77
2022/04/23 02:35:17;;;;;;;27.08;20.63;;;9.60;59.30;;;;;;5075006;28;20297;-74
2022/04/23 02:37:45;;;;;;;23.33;19.98;;;9.50;59.30;;;;;;5077886;28;20220;-75
2022/04/23 02:40:13;;;;;;;23.98;19.60;;;9.50;60.00;;;;;;5076486;28;20230;-74
2022/04/23 02:42:40;;;;;;;24.65;20.02;;;9.50;60.10;;;;;;5072813;28;20210;-75
2022/04/23 02:45:09;;;;;;;27.35;20.70;;;9.50;60.10;;;;;;5071194;28;20253;-75
2022/04/23 02:47:48;;;;;;;24.48;19.67;;;9.50;60.20;;;;;;5072219;28;20230;-75
2022/04/23 02:50:16;;;;;;;24.30;18.98;;;9.40;60.90;;;;;;5068629;28;20253;-76
2022/04/23 02:52:44;;;;;;;24.35;19.30;;;9.40;60.80;;;;;;5066165;28;20206;-77
2022/04/23 02:55:12;;;;;;;26.38;20.85;;;9.40;61.20;;;;;;5056257;28;20234;-76
2022/04/23 02:57:40;;;;;;;27.70;19.52;;;9.40;61.70;;;;;;5058306;28;20207;-76
2022/04/23 03:00:09;;;;;;;28.95;20.48;;;9.40;61.70;;;;;;5062664;28;20206;-76
2022/04/23 03:02:37;;;;;;;25.10;20.52;;;9.30;61.90;;;;;;5070271;28;20213;-77
2022/04/23 03:05:08;;;;;;;22.50;19.20;;;9.30;62.40;;;;;;5066639;28;20706;-75
2022/04/23 03:07:36;;;;;;;25.50;20.30;;;9.20;62.60;;;;;;5060124;28;20632;-77
2022/04/23 03:10:03;;;;;;;24.85;19.17;;;9.20;63.50;;;;;;5055441;28;20229;-76
2022/04/23 03:12:30;;;;;;;23.95;19.30;;;9.30;63.50;;;;;;5064660;28;20210;-75
2022/04/23 03:14:57;;;;;;;27.20;20.70;;;9.20;63.40;;;;;;5070708;28;20236;-76
2022/04/23 03:17:24;;;;;;;22.83;18.73;;;9.20;63.80;;;;;;5071683;28;20215;-76
2022/04/23 03:19:51;;;;;;;25.55;18.60;;;9.20;64.30;;;;;;5069585;28;20226;-75
2022/04/23 03:22:21;;;;;;;26.33;21.05;;;9.10;64.90;;;;;;5063968;28;20218;-77
2022/04/23 03:24:48;;;;;;;25.08;19.42;;;9.10;65.40;;;;;;5063160;28;20318;-78
2022/04/23 03:27:17;;;;;;;25.02;20.52;;;9.10;65.40;;;;;;5071640;28;20233;-77
2022/04/23 03:29:44;;;;;;;26.63;20.55;;;9.10;66.20;;;;;;5056403;28;20272;-77
2022/04/23 03:32:11;;;;;;;31.10;20.65;;;9.00;66.30;;;;;;5057325;28;20221;-76
2022/04/23 03:34:38;;;;;;;25.35;20.40;;;9.00;67.40;;;;;;5056534;28;20305;-76
2022/04/23 03:37:06;;;;;;;21.60;17.83;;;9.00;67.70;;;;;;5056314;28;20318;-77
2022/04/23 03:39:34;;;;;;;25.40;19.02;;;9.00;67.70;;;;;;5056178;28;20260;-75
2022/04/23 03:42:02;;;;;;;25.40;18.95;;;8.90;67.60;;;;;;5056203;28;20216;-76
2022/04/23 03:44:29;;;;;;;26.15;19.38;;;8.90;67.60;;;;;;5057344;28;20689;-76
2022/04/23 03:46:57;;;;;;;25.27;20.05;;;8.90;68.20;;;;;;5068329;28;20234;-76
2022/04/23 03:49:24;;;;;;;24.00;19.83;;;8.90;68.90;;;;;;5054439;28;20241;-77
2022/04/23 03:51:52;;;;;;;24.38;18.88;;;8.90;69.30;;;;;;5055482;28;20293;-77
2022/04/23 03:54:19;;;;;;;26.90;18.40;;;8.80;69.30;;;;;;5055555;28;20774;-75
2022/04/23 03:56:48;;;;;;;25.80;20.30;;;8.80;70.30;;;;;;5055236;28;20672;-76
2022/04/23 03:59:20;;;;;;;23.02;19.17;;;8.80;70.20;;;;;;5055417;28;20306;-77
2022/04/23 04:01:47;;;;;;;29.40;20.30;;;8.70;70.90;;;;;;5055466;28;20293;-76
2022/04/23 04:04:14;;;;;;;25.17;19.30;;;8.80;71.20;;;;;;5062510;28;20210;-75
2022/04/23 04:06:42;;;;;;;23.80;19.48;;;8.70;72.60;;;;;;5069381;28;20317;-76
2022/04/23 04:09:08;;;;;;;26.67;20.15;;;8.70;72.00;;;;;;5070219;28;20226;-76
2022/04/23 04:14:18;;;;;;;23.55;19.83;;;8.70;72.60;;;;;;5052178;28;20791;-76
2022/04/23 04:16:46;;;;;;;22.90;18.15;;;8.70;73.10;;;;;;5056077;28;20238;-73
2022/04/23 04:19:14;;;;;;;23.48;18.48;;;8.60;73.70;;;;;;5039234;28;20215;-76
2022/04/23 04:21:41;;;;;;;24.77;19.15;;;8.60;74.50;;;;;;5054624;28;20206;-75
2022/04/23 04:24:08;;;;;;;25.08;19.70;;;8.60;74.80;;;;;;5057763;28;20206;-75
2022/04/23 04:26:35;;;;;;;24.38;19.58;;;8.60;74.80;;;;;;5056937;28;20235;-77
2022/04/23 04:29:02;;;;;;;24.00;19.05;;;8.60;75.10;;;;;;5060706;28;20210;-77
2022/04/23 04:31:48;;;;;;;25.20;19.42;;;8.60;75.30;;;;;;5056904;28;20728;-76
2022/04/23 04:34:17;;;;;;;23.77;18.63;;;8.60;75.90;;;;;;5054922;28;20213;-77
2022/04/23 04:36:44;;;;;;;26.45;19.40;;;8.60;76.00;;;;;;5060166;28;20232;-78
2022/04/23 04:39:10;;;;;;;24.05;19.45;;;8.60;76.00;;;;;;5052169;28;20210;-76
2022/04/23 04:41:37;;;;;;;24.90;19.80;;;8.60;76.00;;;;;;5063450;28;20206;-75
2022/04/23 04:44:05;;;;;;;22.73;18.30;;;8.60;76.00;;;;;;5062847;28;20198;-75
2022/04/23 04:46:34;;;;;;;27.15;19.77;;;8.70;76.10;;;;;;5062556;28;20318;-75
2022/04/23 04:49:00;;;;;;;22.02;17.20;;;8.70;76.10;;;;;;5073673;28;20270;-76
2022/04/23 04:51:28;;;;;;;24.27;18.98;;;8.80;75.60;;;;;;5074997;28;20242;-72
2022/04/23 04:53:55;;;;;;;26.33;19.05;;;9.00;74.80;;;;;;5079531;28;20193;-73
2022/04/23 04:56:22;;;;;;;23.42;18.20;;;9.10;72.60;;;;;;5079419;28;20232;-73
2022/04/23 04:58:49;;;;;;;20.92;17.45;;;9.30;71.30;;;;;;5079380;28;20198;-73
2022/04/23 05:01:16;;;;;;;22.35;17.23;;;9.50;69.30;;;;;;5078114;28;20215;-72
2022/04/23 05:03:44;;;;;;;20.05;16.13;;;9.60;68.30;;;;;;5079503;28;20182;-73
2022/04/23 05:06:11;;;;;;;20.15;16.48;;;9.70;68.00;;;;;;5079341;28;20219;-75
2022/04/23 05:08:38;;;;;;;21.02;16.27;;;9.80;66.80;;;;;;5071169;28;20203;-72
2022/04/23 05:11:06;;;;;;;20.38;16.98;;;9.80;66.50;;;;;;5061253;28;20222;-75
2022/04/23 05:13:33;;;;;;;21.60;17.50;;;9.90;65.40;;;;;;5057664;28;20207;-76
2022/04/23 05:16:00;;;;;;;20.50;17.02;;;10.10;63.10;;;;;;5057680;28;20233;-76
2022/04/23 05:18:27;;;;;;;21.63;16.90;;;10.10;63.00;;;;;;5057984;28;20206;-75
2022/04/23 05:20:55;;;;;;;20.35;16.08;;;10.20;62.70;;;;;;5059390;28;20299;-78
2022/04/23 05:23:22;;;;;;;19.58;16.10;;;10.10;62.80;;;;;;5061337;28;20206;-75
2022/04/23 05:25:49;;;;;;;20.42;16.02;;;10.10;63.60;;;;;;5060828;28;20226;-74
2022/04/23 05:28:16;;;;;;;18.45;16.45;;;10.20;62.90;;;;;;5071317;28;20206;-76
2022/04/23 05:30:44;;;;;;;18.38;15.90;;;10.10;62.90;;;;;;5067477;28;20253;-78
2022/04/23 05:33:11;;;;;;;17.33;14.70;;;10.20;64.10;;;;;;5062910;28;20207;-74
2022/04/23 05:35:39;;;;;;;25.58;16.30;;;10.40;62.00;;;;;;5072553;28;20241;-74
2022/04/23 05:38:07;;;;;;;18.85;14.40;;;10.50;62.00;;;;;;5069992;28;20557;-77
2022/04/23 05:40:34;;;;;;;17.58;13.82;;;10.40;61.70;;;;;;5059442;28;20681;-74
2022/04/23 05:43:01;;;;;;;15.30;13.68;;;10.60;61.20;;;;;;5059306;28;20226;-76
2022/04/23 05:45:29;;;;;;;19.60;14.45;;;10.70;59.60;;;;;;5057685;28;20299;-76
2022/04/23 05:47:57;;;;;;;14.82;12.30;;;10.70;60.10;;;;;;5058801;28;20239;-76
2022/04/23 05:50:24;;;;;;;15.52;13.23;;;10.80;59.40;;;;;;5061923;28;20262;-76
2022/04/23 05:52:52;;;;;;;16.40;13.65;;;10.60;60.50;;;;;;5065747;28;20198;-75
2022/04/23 05:55:20;;;;;;;14.85;13.25;;;10.60;59.80;;;;;;5070864;28;20246;-77
2022/04/23 05:57:47;;;;;;;13.95;11.65;;;10.60;61.40;;;;;;5070130;28;20214;-72
2022/04/23 06:00:15;;;;;;;15.45;13.02;;;10.60;60.70;;;;;;5078123;28;20254;-74
2022/04/23 06:02:42;;;;;;;13.48;11.50;;;10.60;60.90;;;;;;5077185;28;20237;-73
2022/04/23 06:05:10;;;;;;;16.05;12.02;;;10.70;60.80;;;;;;5074202;28;20226;-72
2022/04/23 06:07:37;;;;;;;13.80;11.65;;;10.70;60.30;;;;;;5064794;28;20210;-74
2022/04/23 06:10:05;;;;;;;12.55;11.18;;;10.70;60.50;;;;;;5060471;28;20577;-75
2022/04/23 06:12:34;;;;;;;14.23;11.45;;;10.80;60.80;;;;;;5062630;28;20210;-76
2022/04/23 06:15:01;;;;;;;12.48;11.18;;;10.80;60.40;;;;;;5066941;28;20267;-76
2022/04/23 06:17:29;;;;;;;13.73;11.30;;;10.70;60.90;;;;;;5058799;28;20237;-74
2022/04/23 06:19:57;;;;;;;13.25;11.85;;;10.80;60.40;;;;;;5057780;28;20210;-76
2022/04/23 06:22:24;;;;;;;12.00;10.23;;;10.90;60.40;;;;;;5057822;28;20210;-77
2022/04/23 06:24:52;;;;;;;14.13;10.40;;;11.00;59.60;;;;;;5059396;28;20230;-76
2022/04/23 06:27:19;;;;;;;12.60;10.75;;;11.10;59.70;;;;;;5064347;28;20241;-76
2022/04/23 06:29:47;;;;;;;11.32;9.48;;;11.10;59.70;;;;;;5066066;28;20266;-73
2022/04/23 06:32:14;;;;;;;11.40;9.95;;;11.10;58.90;;;;;;5069660;28;20230;-75
2022/04/23 06:34:41;;;;;;;11.05;9.85;;;11.20;59.30;;;;;;5062165;28;20206;-76
2022/04/23 06:37:09;;;;;;;12.50;10.48;;;11.10;58.40;;;;;;5064947;28;20270;-75
2022/04/23 06:39:36;;;;;;;11.38;10.18;;;11.20;58.20;;;;;;5066686;28;20202;-78
2022/04/23 06:42:04;;;;;;;11.73;9.18;;;11.10;58.80;;;;;;5056167;28;20238;-77
2022/04/23 06:44:31;;;;;;;12.38;10.98;;;11.30;58.10;;;;;;5055865;28;20278;-74
2022/04/23 06:46:59;;;;;;;12.68;10.38;;;11.30;56.90;;;;;;5057692;28;20206;-75
2022/04/23 06:49:27;;;;;;;10.95;9.85;;;11.20;57.10;;;;;;5058684;28;20233;-76
2022/04/23 06:51:54;;;;;;;10.25;8.73;;;11.30;57.60;;;;;;5075078;28;20227;-75
2022/04/23 06:54:22;;;;;;;12.02;10.45;;;11.50;56.40;;;;;;5061541;28;20264;-74
2022/04/23 06:56:48;;;;;;;11.43;9.75;;;11.40;56.30;;;;;;5057522;23;20242;-77
2022/04/23 06:59:15;;;;;;;10.50;9.40;;;11.40;56.10;;;;;;5033767;28;20269;-78
2022/04/23 07:01:42;;;;;;;10.80;9.80;;;11.50;55.80;;;;;;5035683;28;20221;-77
2022/04/23 07:04:11;;;;;;;11.85;9.68;;;11.60;55.10;;;;;;5041217;28;20599;-78
2022/04/23 07:06:38;;;;;;;10.70;9.60;;;11.70;54.30;;;;;;5042750;28;20227;-77
2022/04/23 07:09:06;;;;;;;11.93;10.45;;;11.70;54.50;;;;;;5043225;28;20211;-77
2022/04/23 07:11:32;;;;;;;10.70;9.55;;;11.60;55.40;;;;;;5034895;28;20227;-77
2022/04/23 07:13:59;;;;;;;10.57;8.93;;;11.60;54.80;;;;;;5035638;28;20397;-77
2022/04/23 07:16:26;;;;;;;14.60;10.00;;;11.70;54.70;;;;;;5036214;28;20239;-78
2022/04/23 07:18:54;;;;;;;10.70;9.60;;;11.90;54.40;;;;;;5036624;28;20247;-80
2022/04/23 07:21:23;;;;;;;9.82;8.82;;;12.10;52.40;;;;;;5038432;28;20238;-79
2022/04/23 07:24:05;;;;;;;12.30;9.27;;;12.30;52.50;;;;;;5047543;28;20207;-77
2022/04/23 07:26:35;;;;;;;11.35;9.68;;;12.20;52.00;;;;;;5047882;28;20255;-78
2022/04/23 07:29:05;;;;;;;10.52;9.40;;;12.60;51.00;;;;;;5038260;28;20210;-77
2022/04/23 07:31:32;;;;;;;10.23;9.25;;;12.30;51.40;;;;;;5047790;28;20225;-77
2022/04/23 07:39:30;;;;;;;9.68;8.15;;;12.60;50.80;;;;;;5052319;28;20217;-77
2022/04/23 07:41:58;;;;;;;9.73;8.73;;;12.70;50.90;;;;;;5055386;28;20191;-78
2022/04/23 07:44:25;;;;;;;11.60;9.48;;;12.80;50.10;;;;;;5054365;28;20198;-78
2022/04/23 07:46:53;;;;;;;10.10;8.88;;;12.90;50.20;;;;;;5056434;28;20211;-78
2022/04/23 07:49:20;;;;;;;10.20;9.20;;;12.70;50.00;;;;;;5045390;28;20261;-78
2022/04/23 07:51:49;;;;;;;9.32;8.15;;;12.70;49.90;;;;;;5035706;28;20654;-78
2022/04/23 07:54:16;;;;;;;8.90;8.00;;;12.80;50.20;;;;;;5039496;28;20290;-79
2022/04/23 07:56:44;;;;;;;9.00;8.13;;;12.80;49.80;;;;;;5038530;28;20565;-79
2022/04/23 07:59:11;;;;;;;8.70;7.88;;;12.60;50.00;;;;;;5037289;28;20305;-79
2022/04/23 08:01:38;;;;;;;9.63;8.57;;;12.80;49.70;;;;;;5038155;28;20230;-77
2022/04/23 08:04:06;;;;;;;9.63;8.63;;;12.90;49.40;;;;;;5038472;28;20694;-76
2022/04/23 08:06:35;;;;;;;9.88;8.88;;;13.00;48.70;;;;;;5037453;28;20273;-77
2022/04/23 08:09:04;;;;;;;8.40;7.07;;;13.40;47.60;;;;;;5037530;28;20638;-76
2022/04/23 08:11:31;;;;;;;7.60;6.88;;;13.10;47.70;;;;;;5037521;28;20225;-76
2022/04/23 08:13:57;;;;;;;8.40;7.60;;;12.70;48.70;;;;;;5037655;28;20283;-77
2022/04/23 08:16:27;;;;;;;8.50;7.65;;;13.00;48.30;;;;;;5037128;28;20784;-77
2022/04/23 08:18:55;;;;;;;8.40;7.60;;;13.00;48.40;;;;;;5038560;28;20211;-77
2022/04/23 08:21:22;;;;;;;8.95;7.00;;;13.20;47.60;;;;;;5037482;28;20210;-76
2022/04/23 08:23:49;;;;;;;8.15;7.45;;;13.00;48.30;;;;;;5037834;28;20222;-77
2022/04/23 08:26:18;;;;;;;8.05;6.45;;;13.00;47.90;;;;;;5037424;28;20318;-77
2022/04/23 08:31:29;;;;;;;6.75;6.15;;;13.40;46.70;;;;;;5043965;28;20258;-77
2022/04/23 08:33:59;;;;;;;6.40;5.90;;;13.50;46.60;;;;;;5044993;28;20207;-76
2022/04/23 08:36:26;;;;;;;6.65;5.95;;;13.40;46.80;;;;;;5041483;28;20227;-76
2022/04/23 08:38:55;;;;;;;8.13;5.65;;;13.40;46.90;;;;;;5047949;28;20302;-76
2022/04/23 08:41:28;;;;;;;7.55;6.05;;;13.40;46.70;;;;;;5036107;28;20242;-77
2022/04/23 08:44:06;;;;;;;6.28;5.70;;;13.50;46.60;;;;;;5036463;28;20214;-76
2022/04/23 08:46:35;;;;;;;7.10;6.40;;;14.00;45.60;;;;;;5036361;28;20230;-78
2022/04/23 08:49:13;;;;;;;9.98;5.90;;;13.90;44.90;;;;;;5035761;28;20217;-77
2022/04/23 08:51:42;;;;;;;7.32;6.40;;;14.00;44.80;;;;;;5041049;28;20226;-76
2022/04/23 08:54:11;;;;;;;6.50;5.83;;;14.30;43.80;;;;;;5044074;28;20243;-75
2022/04/23 08:56:41;;;;;;;6.07;5.47;;;14.40;43.60;;;;;;5037412;28;20460;-76
2022/04/23 08:59:11;;;;;;;5.83;5.30;;;15.00;44.10;;;;;;5037544;28;20460;-76
2022/04/23 09:01:39;;;;;;;5.10;4.60;;;15.30;41.50;;;;;;5035931;28;20453;-76
2022/04/23 09:04:08;;;;;;;7.93;4.43;;;15.40;41.50;;;;;;5035563;28;20519;-76
2022/04/23 09:06:40;;;;;;;5.15;4.65;;;15.40;40.90;;;;;;5035639;28;20466;-76
2022/04/23 09:09:10;;;;;;;5.00;4.50;;;15.40;41.30;;;;;;5035961;28;20245;-77
2022/04/23 09:11:40;;;;;;;7.85;5.05;;;15.20;40.80;;;;;;5036226;28;20547;-76
2022/04/23 09:14:09;;;;;;;5.77;4.73;;;15.00;41.70;;;;;;5036787;28;20671;-76
2022/04/23 09:25:10;;;;;;;4.47;4.07;;;15.20;41.50;;;;;;5035905;28;20446;-75
2022/04/23 09:27:40;;;;;;;4.50;4.10;;;15.30;40.60;;;;;;5036139;28;20468;-75
2022/04/23 09:30:09;;;;;;;4.23;3.83;;;15.10;40.90;;;;;;5035811;28;20858;-75
2022/04/23 09:32:37;;;;;;;5.55;4.53;;;15.30;40.80;;;;;;5035121;28;20456;-76
2022/04/23 09:35:09;;;;;;;4.90;4.50;;;14.90;41.60;;;;;;5035950;28;20317;-76
2022/04/23 09:40:22;;;;;;;4.77;4.37;;;14.50;42.70;;;;;;5035702;28;20725;-77
2022/04/23 09:42:59;;;;;;;4.70;4.30;;;14.60;42.40;;;;;;5044165;28;20425;-76
2022/04/23 09:45:29;;;;;;;4.23;3.83;;;14.70;41.90;;;;;;5046220;28;20475;-77
2022/04/23 09:47:56;;;;;;;4.43;3.80;;;14.70;42.10;;;;;;5047336;28;20941;-77
2022/04/23 09:50:24;;;;;;;6.07;4.23;;;14.70;41.30;;;;;;5043858;28;20510;-77
2022/04/23 09:52:51;;;;;;;5.20;4.03;;;14.90;41.20;;;;;;5041743;28;20460;-77
2022/04/23 09:55:21;;;;;;;4.00;3.70;;;15.20;40.70;;;;;;5049448;28;20478;-77
2022/04/23 09:57:48;;;;;;;3.90;3.50;;;15.30;39.70;;;;;;5053519;28;20498;-76
2022/04/23 10:00:17;;;;;;;3.80;3.50;;;15.60;39.10;;;;;;5049939;28;20448;-76
2022/04/23 10:02:46;;;;;;;4.43;4.00;;;15.80;38.20;;;;;;5048497;28;20450;-76
2022/04/23 10:05:18;;;;;;;4.47;3.77;;;15.40;39.60;;;;;;5051572;28;20496;-77
2022/04/23 10:07:50;;;;;;;5.50;3.33;;;15.20;39.50;;;;;;5047564;28;20432;-75
2022/04/23 10:10:18;;;;;;;4.00;3.70;;;15.30;39.20;;;;;;5035862;28;20499;-77
2022/04/23 10:12:46;;;;;;;4.40;4.00;;;15.20;39.80;;;;;;5035995;28;20468;-77
2022/04/23 10:15:14;;;;;;;6.63;3.90;;;14.90;39.80;;;;;;5035466;28;20812;-76
2022/04/23 10:17:44;;;;;;;5.20;4.17;;;15.00;39.60;;;;;;5036071;28;20539;-76
2022/04/23 10:20:13;;;;;;;4.60;3.27;;;15.30;39.40;;;;;;5036339;28;20439;-76
2022/04/23 10:22:54;;;;;;;6.20;3.57;;;15.70;38.90;;;;;;5037469;28;20453;-76
2022/04/23 10:25:34;;;;;;;7.13;4.03;;;16.40;37.20;;;;;;5035516;28;20988;-77
2022/04/23 10:28:01;;;;;;;15.40;5.43;;;16.90;35.90;;;;;;5036217;28;20954;-76
2022/04/23 10:30:29;;;;;;;3.67;3.37;;;16.90;35.90;;;;;;5034874;28;20436;-76
2022/04/23 10:32:57;;;;;;;3.40;3.20;;;16.20;35.70;;;;;;5037760;28;20448;-76
2022/04/23 10:35:34;;;;;;;6.30;4.23;;;15.90;36.80;;;;;;5035507;28;20474;-76
2022/04/23 10:38:20;;;;;;;4.20;3.90;;;15.50;38.10;;;;;;5038266;28;20438;-76
2022/04/23 10:40:47;;;;;;;6.10;3.80;;;15.30;38.40;;;;;;5042748;28;20458;-75
2022/04/23 10:43:19;;;;;;;4.00;3.60;;;15.60;38.20;;;;;;5043662;28;20938;-76
2022/04/23 10:45:48;;;;;;;4.27;3.60;;;16.40;36.50;;;;;;5038328;28;20850;-76
2022/04/23 10:48:32;;;;;;;4.10;3.70;;;16.20;36.50;;;;;;5039361;28;20428;-76
2022/04/23 10:51:06;;;;;;;5.07;3.60;;;16.60;35.60;;;;;;5035151;28;20941;-76
2022/04/23 10:53:54;;;;;;;3.87;3.50;;;16.50;35.60;;;;;;5033626;28;20471;-76
2022/04/23 10:56:23;;;;;;;3.40;3.10;;;17.00;34.50;;;;;;5033306;28;20500;-76
2022/04/23 10:58:51;;;;;;;5.60;3.90;;;17.40;33.90;;;;;;5035087;28;20464;-76
2022/04/23 11:01:22;;;;;;;17.33;4.03;;;17.70;32.80;;;;;;5037979;28;20757;-76
2022/04/23 11:04:12;;;;;;;3.90;3.50;;;17.10;34.20;;;;;;5033373;28;20435;-75
2022/04/23 11:12:32;;;;;;;3.97;3.67;;;17.50;32.90;;;;;;5033024;28;20502;-76
2022/04/23 11:15:00;;;;;;;5.40;3.43;;;17.80;32.00;;;;;;5033205;28;20943;-76
2022/04/23 11:17:54;;;;;;;7.70;3.73;;;17.90;31.70;;;;;;5033301;28;20436;-76
2022/04/23 11:20:30;;;;;;;3.90;3.60;;;17.80;31.80;;;;;;5033307;28;20454;-76
2022/04/23 11:22:59;;;;;;;4.47;4.07;;;17.80;32.00;;;;;;5033675;28;20447;-75
2022/04/23 11:25:26;;;;;;;3.90;3.60;;;17.80;31.40;;;;;;5035047;28;20470;-75
2022/04/23 11:27:53;;;;;;;3.87;3.57;;;18.00;31.20;;;;;;5033576;28;20460;-75
2022/04/23 11:30:28;;;;;;;4.70;4.20;;;17.60;31.40;;;;;;5034086;28;20477;-75
2022/04/23 11:32:55;;;;;;;4.80;4.40;;;17.20;33.60;;;;;;5034120;28;20940;-76
2022/04/23 11:35:30;;;;;;;5.10;4.70;;;16.70;35.70;;;;;;5034321;28;20471;-76
2022/04/23 11:37:57;;;;;;;5.40;4.90;;;16.40;35.40;;;;;;5036373;28;20428;-75
2022/04/23 11:40:28;;;;;;;5.23;4.83;;;16.20;35.50;;;;;;5045392;28;20432;-76
2022/04/23 11:42:55;;;;;;;5.07;4.63;;;16.30;35.80;;;;;;5043520;28;20457;-77
2022/04/23 11:45:23;;;;;;;5.23;4.83;;;16.30;35.70;;;;;;5035175;28;20501;-77
2022/04/23 11:47:51;;;;;;;6.00;5.20;;;16.20;35.20;;;;;;5034919;28;20454;-76
2022/04/23 11:50:21;;;;;;;4.80;4.40;;;16.10;35.20;;;;;;5036867;28;20438;-77
2022/04/23 11:52:58;;;;;;;4.67;4.27;;;16.10;35.20;;;;;;5043038;28;20463;-78
2022/04/23 11:55:27;;;;;;;4.20;3.90;;;16.20;35.20;;;;;;5047397;28;20492;-76
2022/04/23 11:57:55;;;;;;;5.03;4.00;;;16.00;36.90;;;;;;5039533;28;20481;-77
2022/04/23 12:00:24;;;;;;;4.03;3.73;;;16.30;35.30;;;;;;5034598;28;20452;-76
2022/04/23 12:02:51;;;;;;;4.00;3.70;;;16.10;35.40;;;;;;5033859;28;20815;-76
2022/04/23 12:05:25;;;;;;;3.90;3.60;;;16.50;34.80;;;;;;5043096;28;20464;-76
2022/04/23 12:07:53;;;;;;;3.80;3.50;;;17.20;32.50;;;;;;5036295;28;20564;-77
2022/04/23 12:10:25;;;;;;;4.17;3.77;;;17.10;32.40;;;;;;5035196;28;20468;-76
2022/04/23 12:12:52;;;;;;;4.20;3.80;;;16.80;33.40;;;;;;5035885;28;20496;-77
2022/04/23 12:15:21;;;;;;;6.20;4.40;;;16.70;33.90;;;;;;5037524;28;20539;-77
2022/04/23 12:17:49;;;;;;;3.60;3.33;;;16.70;34.20;;;;;;5036373;28;20433;-76
2022/04/23 12:20:19;;;;;;;4.03;3.73;;;16.90;34.20;;;;;;5034272;28;20485;-76
2022/04/23 12:22:58;;;;;;;3.70;3.43;;;17.50;33.10;;;;;;5035430;28;20816;-77
2022/04/23 12:25:27;;;;;;;4.27;3.93;;;17.80;32.20;;;;;;5034422;28;20448;-76
2022/04/23 12:27:59;;;;;;;4.23;3.73;;;17.90;31.70;;;;;;5033364;28;20454;-76
2022/04/23 12:41:41;;;;;;;5.17;4.77;;;17.10;33.60;;;;;;5050303;28;20494;-76
2022/04/23 12:44:21;;;;;;;5.10;4.70;;;17.50;32.20;;;;;;5052883;28;20442;-77
2022/04/23 12:46:55;;;;;;;5.30;4.90;;;16.90;33.20;;;;;;5055221;28;20476;-76
2022/04/23 12:49:23;;;;;;;5.13;4.63;;;16.70;33.90;;;;;;5049130;28;20935;-76
2022/04/23 12:51:54;;;;;;;6.33;5.83;;;16.30;35.30;;;;;;5045828;28;20464;-76
2022/04/23 12:54:23;;;;;;;5.40;4.90;;;16.40;34.30;;;;;;5045454;28;20884;-76
2022/04/23 12:56:51;;;;;;;6.00;5.40;;;16.70;34.30;;;;;;5040686;28;20514;-76
2022/04/23 12:59:18;;;;;;;6.27;5.77;;;16.30;35.30;;;;;;5055393;28;20440;-76
2022/04/23 13:01:45;;;;;;;5.53;5.13;;;16.40;34.40;;;;;;5055196;28;20489;-76
2022/04/23 13:04:16;;;;;;;8.13;5.33;;;16.60;34.00;;;;;;5057297;28;20480;-76
2022/04/23 13:09:28;;;;;;;5.67;5.17;;;16.90;33.40;;;;;;5049613;28;20445;-76
2022/04/23 13:11:55;;;;;;;5.07;4.67;;;17.30;32.70;;;;;;5042804;28;20511;-76
2022/04/23 13:14:22;;;;;;;5.40;4.67;;;16.90;34.20;;;;;;5042362;28;20503;-75
2022/04/23 13:16:51;;;;;;;5.93;5.43;;;17.40;32.50;;;;;;5041587;28;20487;-76
2022/04/23 13:19:18;;;;;;;5.97;5.47;;;17.40;32.70;;;;;;5037525;28;20445;-76
2022/04/23 13:21:45;;;;;;;5.97;5.30;;;16.80;32.70;;;;;;5037239;28;21065;-77
2022/04/23 13:24:12;;;;;;;5.47;5.07;;;16.70;33.20;;;;;;5037991;28;20450;-76
2022/04/23 13:26:40;;;;;;;4.90;4.40;;;16.90;32.50;;;;;;5039210;28;20496;-77
2022/04/23 13:29:07;;;;;;;5.13;4.73;;;16.70;32.60;;;;;;5038460;28;20792;-76